createdAt,value
2023-02-14T00:01:15.164Z,37.55
2023-02-14T00:03:42.275Z,38.28
2023-02-14T00:06:12.940Z,40.53
2023-02-14T00:08:44.256Z,42.85
2023-02-14T00:11:13.055Z,47.17
2023-02-14T00:14:00.153Z,38.28
2023-02-14T00:16:27.320Z,32.25
2023-02-14T00:19:03.319Z,35.53
2023-02-14T00:21:32.477Z,42.47
2023-02-14T00:23:59.582Z,36.15
2023-02-14T00:26:26.661Z,45.65
2023-02-14T00:28:53.730Z,40.63
2023-02-14T00:31:20.967Z,36.95
2023-02-14T00:33:48.676Z,38.15
2023-02-14T00:36:17.716Z,35.28
2023-02-14T00:38:44.858Z,44.70
2023-02-14T00:41:19.154Z,35.72
2023-02-14T00:43:47.623Z,34.85
2023-02-14T00:46:15.772Z,37.78
2023-02-14T00:48:43.007Z,37.30
2023-02-14T00:51:11.094Z,38.83
2023-02-14T00:53:39.015Z,36.38
2023-02-14T00:56:07.093Z,34.53
2023-02-14T00:58:34.308Z,34.97
2023-02-14T01:01:01.802Z,36.63
2023-02-14T01:03:29.541Z,39.00
2023-02-14T01:05:57.560Z,38.75
2023-02-14T01:08:25.265Z,41.47
2023-02-14T01:10:52.939Z,36.97
2023-02-14T01:13:20.333Z,38.72
2023-02-14T01:15:50.154Z,39.33
2023-02-14T01:18:19.249Z,40.83
2023-02-14T01:20:48.939Z,40.35
2023-02-14T01:23:16.026Z,34.95
2023-02-14T01:25:43.109Z,36.40
2023-02-14T01:28:10.176Z,37.78
2023-02-14T01:30:37.360Z,41.40
2023-02-14T01:33:04.484Z,38.38
2023-02-14T01:35:37.711Z,37.42
2023-02-14T01:38:04.803Z,36.13
2023-02-14T01:40:31.939Z,33.40
2023-02-14T01:42:59.028Z,37.40
2023-02-14T01:45:26.773Z,35.20
2023-02-14T01:47:56.483Z,38.95
2023-02-14T01:50:33.496Z,38.13
2023-02-14T01:53:05.992Z,37.15
2023-02-14T01:55:41.243Z,31.63
2023-02-14T01:58:12.451Z,33.95
2023-02-14T02:00:59.487Z,33.05
2023-02-14T02:03:38.661Z,35.80
2023-02-14T02:06:17.610Z,38.15
2023-02-14T02:08:58.014Z,39.08
2023-02-14T02:11:26.139Z,32.08
2023-02-14T02:13:53.251Z,35.38
2023-02-14T02:17:02.967Z,33.03
2023-02-14T02:20:04.112Z,37.53
2023-02-14T02:23:08.552Z,36.88
2023-02-14T02:25:51.733Z,37.03
2023-02-14T02:28:56.156Z,34.13
2023-02-14T02:31:26.279Z,33.65
2023-02-14T02:34:11.816Z,37.10
2023-02-14T02:36:52.214Z,33.97
2023-02-14T02:39:49.129Z,36.55
2023-02-14T02:42:18.920Z,28.05
2023-02-14T02:45:05.506Z,29.75
2023-02-14T02:47:46.839Z,27.95
2023-02-14T02:50:38.699Z,29.50
2023-02-14T02:53:23.521Z,32.20
2023-02-14T02:56:28.782Z,33.53
2023-02-14T02:59:29.218Z,31.95
2023-02-14T03:02:06.596Z,28.48
2023-02-14T03:04:53.520Z,32.63
2023-02-14T03:07:37.170Z,30.33
2023-02-14T03:10:24.176Z,30.10
2023-02-14T03:13:16.308Z,34.70
2023-02-14T03:16:02.106Z,37.45
2023-02-14T03:18:57.086Z,27.77
2023-02-14T03:21:39.592Z,28.90
2023-02-14T03:24:32.606Z,29.33
2023-02-14T03:27:15.006Z,30.70
2023-02-14T03:29:51.697Z,36.78
2023-02-14T03:32:34.383Z,29.60
2023-02-14T03:35:12.726Z,29.33
2023-02-14T03:37:54.195Z,30.60
2023-02-14T03:40:27.389Z,32.13
2023-02-14T03:43:02.133Z,32.50
2023-02-14T03:45:34.614Z,28.88
2023-02-14T03:48:12.802Z,29.63
2023-02-14T03:50:43.321Z,31.02
2023-02-14T03:53:11.949Z,32.17
2023-02-14T03:55:55.416Z,29.77
2023-02-14T03:58:28.435Z,26.70
2023-02-14T04:01:02.003Z,33.13
2023-02-14T04:03:32.295Z,30.88
2023-02-14T04:06:00.504Z,31.25
2023-02-14T04:08:29.306Z,28.15
2023-02-14T04:11:00.138Z,34.55
2023-02-14T04:13:28.045Z,31.98
2023-02-14T04:15:55.297Z,25.60
2023-02-14T04:18:41.376Z,28.27
2023-02-14T04:21:08.586Z,32.25
2023-02-14T04:23:35.781Z,28.75
2023-02-14T04:26:04.205Z,31.02
2023-02-14T04:28:32.269Z,33.70
2023-02-14T04:31:05.159Z,27.73
2023-02-14T04:33:33.394Z,32.22
2023-02-14T04:36:00.841Z,26.48
2023-02-14T04:38:28.095Z,30.27
2023-02-14T04:40:55.332Z,30.10
2023-02-14T04:43:22.420Z,30.45
2023-02-14T04:45:49.557Z,31.60
2023-02-14T04:48:16.616Z,28.30
2023-02-14T04:50:43.758Z,34.20
2023-02-14T04:53:10.920Z,32.17
2023-02-14T04:55:38.045Z,27.92
2023-02-14T04:58:05.816Z,27.77
2023-02-14T05:00:33.040Z,30.85
2023-02-14T05:03:00.135Z,31.92
2023-02-14T05:05:27.241Z,31.05
2023-02-14T05:07:54.347Z,28.40
2023-02-14T05:10:21.433Z,29.88
2023-02-14T05:12:48.513Z,29.85
2023-02-14T05:15:15.663Z,28.08
2023-02-14T05:17:42.762Z,32.88
2023-02-14T05:20:10.147Z,27.58
2023-02-14T05:22:37.221Z,27.77
2023-02-14T05:25:04.530Z,28.10
2023-02-14T05:27:31.662Z,31.55
2023-02-14T05:29:58.799Z,31.65
2023-02-14T05:32:25.890Z,26.20
2023-02-14T05:34:52.961Z,30.58
2023-02-14T05:37:20.029Z,26.65
2023-02-14T05:39:47.200Z,29.65
2023-02-14T05:42:14.459Z,28.98
2023-02-14T05:44:41.528Z,37.13
2023-02-14T05:47:08.579Z,26.90
2023-02-14T05:49:36.026Z,26.83
2023-02-14T05:52:03.184Z,25.60
2023-02-14T05:54:30.317Z,30.58
2023-02-14T05:56:57.567Z,26.98
2023-02-14T05:59:24.612Z,28.48
2023-02-14T06:01:51.706Z,29.70
2023-02-14T06:04:18.789Z,26.35
2023-02-14T06:06:45.884Z,32.08
2023-02-14T06:09:13.551Z,28.50
2023-02-14T06:11:40.747Z,26.98
2023-02-14T06:14:07.866Z,29.67
2023-02-14T06:16:35.082Z,23.92
2023-02-14T06:19:02.226Z,30.27
2023-02-14T06:21:29.354Z,24.55
2023-02-14T06:23:56.517Z,34.33
2023-02-14T06:26:27.793Z,25.30
2023-02-14T06:28:56.323Z,32.13
2023-02-14T06:31:24.513Z,29.45
2023-02-14T06:33:52.962Z,29.65
2023-02-14T06:36:20.324Z,26.95
2023-02-14T06:38:48.756Z,27.48
2023-02-14T06:41:17.162Z,24.00
2023-02-14T06:43:45.650Z,26.25
2023-02-14T06:46:12.889Z,25.27
2023-02-14T06:48:40.116Z,29.73
2023-02-14T06:51:07.444Z,24.85
2023-02-14T06:53:34.899Z,28.45
2023-02-14T06:56:02.397Z,29.25
2023-02-14T06:58:29.497Z,23.98
2023-02-14T07:00:57.517Z,27.10
2023-02-14T07:03:28.650Z,30.90
2023-02-14T07:05:57.849Z,28.58
2023-02-14T07:08:26.328Z,30.95
2023-02-14T07:10:58.239Z,32.17
2023-02-14T07:13:25.867Z,35.88
2023-02-14T07:15:53.030Z,32.88
2023-02-14T07:18:20.109Z,27.90
2023-02-14T07:20:47.305Z,27.35
2023-02-14T07:23:14.385Z,27.17
2023-02-14T07:25:41.475Z,26.40
2023-02-14T07:28:08.564Z,28.45
2023-02-14T07:30:35.859Z,27.40
2023-02-14T07:33:03.072Z,25.40
2023-02-14T07:35:30.389Z,29.42
2023-02-14T07:37:57.584Z,27.75
2023-02-14T07:40:25.192Z,30.27
2023-02-14T07:42:54.257Z,27.65
2023-02-14T07:45:22.747Z,30.38
2023-02-14T07:47:51.776Z,28.00
2023-02-14T07:50:19.893Z,25.48
2023-02-14T07:52:47.409Z,22.17
2023-02-14T07:55:14.528Z,26.38
2023-02-14T07:57:41.744Z,29.90
2023-02-14T08:00:09.464Z,20.98
2023-02-14T08:02:39.254Z,26.23
2023-02-14T08:05:07.015Z,29.15
2023-02-14T08:07:34.101Z,22.85
2023-02-14T08:10:01.337Z,26.60
2023-02-14T08:12:46.796Z,28.08
2023-02-14T08:15:32.172Z,25.50
2023-02-14T08:17:59.232Z,25.10
2023-02-14T08:20:26.374Z,32.10
2023-02-14T08:22:53.516Z,32.03
2023-02-14T08:25:20.651Z,32.55
2023-02-14T08:27:47.760Z,35.88
2023-02-14T08:30:15.354Z,37.65
2023-02-14T08:32:42.624Z,47.00
2023-02-14T08:35:09.735Z,36.40
2023-02-14T08:37:36.845Z,44.55
2023-02-14T08:40:04.030Z,45.13
2023-02-14T08:42:31.097Z,55.00
2023-02-14T08:44:58.183Z,53.65
2023-02-14T08:47:25.356Z,58.85
2023-02-14T08:49:52.469Z,57.60
2023-02-14T08:52:19.561Z,68.85
2023-02-14T08:54:46.668Z,71.28
2023-02-14T08:57:15.464Z,73.95
2023-02-14T08:59:42.574Z,74.30
2023-02-14T09:02:13.468Z,82.22
2023-02-14T09:04:40.599Z,75.22
2023-02-14T09:07:07.944Z,77.40
2023-02-14T09:09:34.996Z,80.95
2023-02-14T09:12:07.022Z,75.05
2023-02-14T09:14:38.465Z,74.07
2023-02-14T09:17:06.620Z,78.95
2023-02-14T09:19:34.601Z,83.78
2023-02-14T09:22:03.863Z,77.13
2023-02-14T09:24:32.607Z,82.32
2023-02-14T09:27:00.033Z,79.75
2023-02-14T09:29:28.564Z,80.20
2023-02-14T09:31:58.111Z,75.05
2023-02-14T09:34:26.488Z,84.15
2023-02-14T09:37:12.393Z,76.55
2023-02-14T09:39:39.483Z,80.18
2023-02-14T09:42:21.079Z,77.20
2023-02-14T09:44:54.277Z,86.47
2023-02-14T09:47:47.660Z,88.97
2023-02-14T09:50:47.232Z,82.37
2023-02-14T09:53:35.226Z,78.78
2023-02-14T09:56:26.013Z,79.65
2023-02-14T09:59:15.749Z,80.95
2023-02-14T10:01:49.502Z,86.18
2023-02-14T10:04:32.479Z,88.35
2023-02-14T10:07:32.146Z,86.00
2023-02-14T10:10:16.635Z,93.88
2023-02-14T10:12:52.894Z,87.47
2023-02-14T10:15:34.542Z,81.60
2023-02-14T10:18:16.617Z,90.25
2023-02-14T10:20:51.564Z,84.05
2023-02-14T10:23:32.136Z,80.35
2023-02-14T10:26:18.335Z,81.88
2023-02-14T10:28:49.244Z,78.00
2023-02-14T10:31:23.721Z,80.60
2023-02-14T10:34:07.740Z,76.60
2023-02-14T10:39:53.293Z,78.47
2023-02-14T10:42:55.282Z,68.90
2023-02-14T10:45:39.111Z,70.10
2023-02-14T10:48:28.033Z,74.18
2023-02-14T10:51:13.778Z,67.32
2023-02-14T10:53:46.977Z,70.43
2023-02-14T10:56:27.972Z,66.18
2023-02-14T10:58:57.775Z,70.07
2023-02-14T11:01:25.397Z,62.00
2023-02-14T11:03:58.502Z,65.65
2023-02-14T11:06:25.726Z,61.08
2023-02-14T11:08:52.811Z,63.47
2023-02-14T11:11:41.248Z,59.03
2023-02-14T11:14:32.924Z,60.08
2023-02-14T11:17:17.649Z,65.78
2023-02-14T11:20:20.427Z,61.83
2023-02-14T11:22:47.585Z,60.65
2023-02-14T11:25:27.020Z,62.95
2023-02-14T11:28:07.880Z,62.13
2023-02-14T11:30:46.444Z,65.22
2023-02-14T11:33:30.809Z,67.57
2023-02-14T11:35:58.418Z,59.17
2023-02-14T11:38:30.666Z,66.35
2023-02-14T11:40:59.719Z,63.97
2023-02-14T11:43:38.337Z,63.83
2023-02-14T11:46:20.472Z,63.88
2023-02-14T11:49:02.144Z,68.05
2023-02-14T11:51:35.891Z,64.82
2023-02-14T11:54:05.657Z,66.35
2023-02-14T11:56:49.841Z,63.25
2023-02-14T11:59:29.906Z,64.53
2023-02-14T12:02:01.419Z,63.00
2023-02-14T12:04:38.099Z,65.53
2023-02-14T12:07:19.433Z,66.72
2023-02-14T12:09:48.348Z,70.15
2023-02-14T12:12:23.196Z,63.25
2023-02-14T12:14:50.385Z,64.85
2023-02-14T12:17:35.588Z,64.55
2023-02-14T12:20:15.128Z,66.00
2023-02-14T12:22:58.122Z,63.85
2023-02-14T12:25:34.489Z,62.83
2023-02-14T12:28:09.869Z,64.15
2023-02-14T12:30:37.267Z,70.43
2023-02-14T12:33:18.333Z,68.93
2023-02-14T12:35:54.766Z,72.72
2023-02-14T12:38:41.905Z,63.28
2023-02-14T12:41:17.901Z,65.28
2023-02-14T12:43:52.758Z,70.00
2023-02-14T12:46:38.121Z,66.90
2023-02-14T12:49:26.209Z,74.15
2023-02-14T12:52:34.879Z,72.22
2023-02-14T12:55:24.431Z,61.95
2023-02-14T12:57:56.516Z,69.35
2023-02-14T13:00:32.415Z,69.03
2023-02-14T13:03:29.177Z,70.60
2023-02-14T13:06:08.595Z,72.20
2023-02-14T13:08:51.648Z,73.47
2023-02-14T13:11:41.440Z,75.63
2023-02-14T13:14:22.492Z,72.68
2023-02-14T13:16:57.241Z,70.35
2023-02-14T13:19:40.206Z,73.22
2023-02-14T13:22:13.353Z,72.63
2023-02-14T13:24:48.221Z,74.50
2023-02-14T13:27:37.475Z,72.90
2023-02-14T13:30:32.284Z,72.82
2023-02-14T13:33:07.651Z,72.40
2023-02-14T13:35:35.738Z,74.85
2023-02-14T13:38:08.413Z,73.93
2023-02-14T13:40:35.962Z,72.60
2023-02-14T13:43:03.514Z,70.15
2023-02-14T13:45:34.866Z,69.80
2023-02-14T13:48:20.272Z,73.97
2023-02-14T13:51:01.602Z,71.68
2023-02-14T13:53:37.811Z,76.40
2023-02-14T13:56:32.440Z,67.25
2023-02-14T13:59:05.802Z,71.82
2023-02-14T14:01:50.143Z,66.43
2023-02-14T14:04:26.721Z,70.15
2023-02-14T14:07:02.705Z,67.53
2023-02-14T14:09:41.968Z,71.63
2023-02-14T14:12:38.083Z,73.07
2023-02-14T14:15:05.297Z,70.75
2023-02-14T14:17:37.097Z,68.22
2023-02-14T14:20:27.532Z,62.78
2023-02-14T14:23:00.061Z,65.22
2023-02-14T14:25:37.304Z,64.43
2023-02-14T14:28:19.467Z,63.90
2023-02-14T14:30:47.740Z,67.78
2023-02-14T14:33:30.019Z,67.88
2023-02-14T14:36:06.076Z,66.15
2023-02-14T14:38:45.436Z,64.60
2023-02-14T14:41:12.665Z,71.53
2023-02-14T14:43:40.681Z,70.45
2023-02-14T14:46:10.760Z,61.78
2023-02-14T14:48:37.923Z,69.47
2023-02-14T14:51:07.721Z,68.78
2023-02-14T14:53:57.722Z,63.90
2023-02-14T14:56:28.397Z,62.53
2023-02-14T14:58:55.768Z,62.88
2023-02-14T15:01:38.627Z,59.80
2023-02-14T15:04:35.400Z,65.40
2023-02-14T15:07:19.584Z,67.13
2023-02-14T15:09:47.296Z,64.20
2023-02-14T15:12:38.693Z,67.90
2023-02-14T15:15:09.275Z,61.05
2023-02-14T15:17:37.662Z,64.05
2023-02-14T15:20:10.542Z,62.13
2023-02-14T15:22:41.271Z,59.60
2023-02-14T15:25:18.280Z,62.95
2023-02-14T15:27:46.008Z,65.53
2023-02-14T15:30:19.475Z,59.58
2023-02-14T15:32:49.376Z,62.72
2023-02-14T15:35:19.355Z,61.97
2023-02-14T15:37:47.222Z,63.47
2023-02-14T15:40:19.989Z,64.60
2023-02-14T15:42:48.063Z,59.17
2023-02-14T15:45:22.716Z,63.90
2023-02-14T15:47:53.625Z,60.53
2023-02-14T15:50:27.808Z,61.33
2023-02-14T15:53:02.596Z,56.03
2023-02-14T15:55:30.466Z,62.42
2023-02-14T15:58:08.060Z,63.10
2023-02-14T16:00:35.622Z,64.15
2023-02-14T16:03:11.442Z,60.95
2023-02-14T16:05:38.562Z,67.10
2023-02-14T16:08:22.886Z,65.50
2023-02-14T16:11:05.136Z,64.13
2023-02-14T16:13:35.134Z,60.45
2023-02-14T16:16:07.339Z,65.70
2023-02-14T16:18:43.360Z,65.07
2023-02-14T16:21:15.038Z,66.78
2023-02-14T16:23:44.665Z,60.40
2023-02-14T16:26:12.146Z,66.65
2023-02-14T16:28:41.426Z,69.32
2023-02-14T16:31:15.140Z,65.95
2023-02-14T16:33:42.334Z,66.60
2023-02-14T16:36:24.653Z,66.85
2023-02-14T16:38:52.975Z,64.50
2023-02-14T16:41:23.021Z,63.83
2023-02-14T16:43:50.701Z,60.55
2023-02-14T16:46:21.575Z,73.68
2023-02-14T16:48:52.602Z,70.60
2023-02-14T16:51:23.539Z,71.68
2023-02-14T16:53:50.894Z,71.43
2023-02-14T16:56:26.843Z,74.47
2023-02-14T16:58:54.292Z,78.20
2023-02-14T17:01:21.455Z,79.80
2023-02-14T17:03:48.561Z,73.38
2023-02-14T17:06:20.160Z,73.30
2023-02-14T17:08:51.142Z,66.50
2023-02-14T17:11:18.824Z,79.72
2023-02-14T17:13:47.759Z,77.47
2023-02-14T17:16:16.908Z,69.05
2023-02-14T17:18:47.721Z,70.32
2023-02-14T17:21:16.573Z,76.15
2023-02-14T17:23:43.729Z,75.63
2023-02-14T17:26:11.221Z,68.75
2023-02-14T17:28:38.362Z,69.35
2023-02-14T17:31:06.277Z,73.72
2023-02-14T17:33:33.797Z,77.70
2023-02-14T17:36:11.531Z,72.32
2023-02-14T17:38:40.253Z,71.57
2023-02-14T17:41:22.497Z,72.32
2023-02-14T17:43:50.817Z,76.40
2023-02-14T17:46:20.768Z,62.90
2023-02-14T17:48:49.098Z,71.85
2023-02-14T17:51:17.911Z,78.25
2023-02-14T17:53:45.032Z,78.50
2023-02-14T17:56:25.753Z,73.70
2023-02-14T17:58:55.121Z,78.85
2023-02-14T18:01:25.230Z,83.95
2023-02-14T18:03:54.294Z,81.80
2023-02-14T18:06:21.648Z,76.32
2023-02-14T18:08:50.505Z,78.00
2023-02-14T18:11:19.711Z,78.53
2023-02-14T18:13:47.310Z,80.47
2023-02-14T18:16:16.896Z,81.30
2023-02-14T18:18:44.384Z,82.35
2023-02-14T18:21:14.841Z,86.65
2023-02-14T18:23:42.476Z,79.20
2023-02-14T18:26:15.066Z,80.43
2023-02-14T18:28:42.212Z,77.50
2023-02-14T18:31:14.884Z,81.53
2023-02-14T18:33:42.223Z,76.22
2023-02-14T18:36:12.341Z,78.00
2023-02-14T18:38:41.014Z,81.07
2023-02-14T18:41:11.061Z,93.30
2023-02-14T18:43:40.912Z,78.53
2023-02-14T18:46:22.239Z,75.63
2023-02-14T18:48:50.166Z,77.93
2023-02-14T18:51:32.125Z,77.68
2023-02-14T18:54:04.551Z,82.43
2023-02-14T18:56:35.690Z,85.97
2023-02-14T18:59:06.468Z,88.88
2023-02-14T19:01:39.773Z,88.70
2023-02-14T19:04:08.842Z,79.90
2023-02-14T19:06:36.144Z,77.20
2023-02-14T19:09:07.466Z,80.22
2023-02-14T19:11:34.661Z,84.28
2023-02-14T19:14:08.305Z,81.72
2023-02-14T19:16:38.399Z,98.07
2023-02-14T19:19:05.597Z,124.43
2023-02-14T19:21:34.779Z,105.13
2023-02-14T19:24:06.761Z,96.30
2023-02-14T19:26:39.737Z,97.75
2023-02-14T19:29:10.642Z,81.30
2023-02-14T19:31:41.045Z,93.85
2023-02-14T19:34:23.938Z,99.63
2023-02-14T19:36:52.739Z,86.18
2023-02-14T19:39:21.098Z,83.18
2023-02-14T19:41:49.114Z,94.13
2023-02-14T19:44:17.380Z,88.90
2023-02-14T19:46:46.261Z,81.63
2023-02-14T19:49:19.163Z,79.18
2023-02-14T19:51:48.049Z,95.27
2023-02-14T19:54:15.785Z,95.03
2023-02-14T19:56:46.074Z,86.25
2023-02-14T19:59:19.500Z,83.47
2023-02-14T20:01:51.843Z,88.22
2023-02-14T20:04:25.902Z,92.85
2023-02-14T20:06:53.534Z,87.35
2023-02-14T20:09:21.983Z,83.90
2023-02-14T20:11:50.368Z,85.50
2023-02-14T20:14:20.748Z,89.13
2023-02-14T20:16:48.954Z,85.93
2023-02-14T20:19:18.648Z,84.85
2023-02-14T20:21:48.115Z,92.05
2023-02-14T20:24:25.385Z,89.00
2023-02-14T20:26:53.107Z,83.97
2023-02-14T20:29:21.504Z,92.07
2023-02-14T20:31:50.991Z,88.47
2023-02-14T20:34:19.294Z,85.88
2023-02-14T20:36:53.063Z,93.65
2023-02-14T20:39:21.498Z,92.68
2023-02-14T20:41:50.183Z,83.80
2023-02-14T20:44:22.099Z,85.75
2023-02-14T20:46:52.274Z,86.80
2023-02-14T20:49:23.353Z,85.60
2023-02-14T20:51:51.582Z,86.10
2023-02-14T20:54:20.968Z,82.40
2023-02-14T20:56:50.536Z,84.22
2023-02-14T20:59:19.283Z,78.63
2023-02-14T21:01:46.535Z,79.25
2023-02-14T21:04:14.062Z,90.32
2023-02-14T21:06:41.215Z,85.07
2023-02-14T21:09:08.585Z,86.45
2023-02-14T21:11:35.940Z,81.45
2023-02-14T21:14:03.143Z,81.85
2023-02-14T21:16:30.575Z,81.10
2023-02-14T21:18:59.720Z,81.68
2023-02-14T21:21:33.747Z,80.38
2023-02-14T21:24:03.207Z,89.55
2023-02-14T21:26:30.934Z,82.43
2023-02-14T21:28:58.230Z,82.82
2023-02-14T21:31:25.746Z,79.82
2023-02-14T21:33:55.357Z,78.93
2023-02-14T21:36:24.567Z,77.95
2023-02-14T21:38:51.703Z,71.47
2023-02-14T21:41:21.547Z,71.47
2023-02-14T21:43:52.413Z,70.15
2023-02-14T21:46:27.068Z,73.07
2023-02-14T21:49:14.345Z,73.68
2023-02-14T21:51:42.232Z,75.15
2023-02-14T21:54:09.982Z,76.05
2023-02-14T21:56:37.969Z,71.72
2023-02-14T21:59:05.274Z,72.18
2023-02-14T22:01:34.709Z,68.35
2023-02-14T22:04:02.626Z,73.90
2023-02-14T22:06:29.803Z,75.28
2023-02-14T22:08:58.861Z,71.35
2023-02-14T22:11:28.087Z,69.72
2023-02-14T22:13:55.863Z,76.25
2023-02-14T22:16:23.738Z,73.25
2023-02-14T22:18:51.697Z,76.22
2023-02-14T22:21:22.289Z,72.90
2023-02-14T22:23:50.033Z,72.90
2023-02-14T22:26:21.495Z,68.00
2023-02-14T22:28:50.362Z,75.00
2023-02-14T22:31:18.431Z,75.63
2023-02-14T22:33:46.798Z,65.78
2023-02-14T22:36:14.031Z,76.82
2023-02-14T22:38:41.324Z,72.88
2023-02-14T22:41:16.812Z,76.07
2023-02-14T22:43:44.419Z,74.75
2023-02-14T22:46:17.205Z,78.65
2023-02-14T22:48:44.603Z,74.35
2023-02-14T22:51:27.962Z,74.88
2023-02-14T22:54:00.522Z,74.43
2023-02-14T22:56:36.909Z,70.68
2023-02-14T22:59:07.006Z,80.90
2023-02-14T23:01:35.728Z,75.40
2023-02-14T23:04:04.169Z,67.32
2023-02-14T23:06:33.268Z,73.55
2023-02-14T23:09:02.131Z,69.57
2023-02-14T23:11:31.607Z,69.07
2023-02-14T23:14:18.066Z,70.07
2023-02-14T23:17:03.874Z,69.03
2023-02-14T23:19:52.438Z,69.90
2023-02-14T23:22:28.352Z,73.47
2023-02-14T23:24:57.791Z,70.72
2023-02-14T23:27:30.740Z,72.63
2023-02-14T23:29:58.037Z,63.83
2023-02-14T23:32:25.112Z,68.65
2023-02-14T23:34:52.298Z,69.03
2023-02-14T23:37:19.827Z,75.72
2023-02-14T23:39:46.973Z,71.03
2023-02-14T23:42:15.977Z,76.07
2023-02-14T23:44:44.776Z,70.68
2023-02-14T23:47:13.125Z,75.20
2023-02-14T23:49:41.780Z,70.65
2023-02-14T23:52:11.436Z,74.00
2023-02-14T23:54:39.665Z,75.25
2023-02-14T23:57:07.358Z,65.22
2023-02-14T23:59:34.532Z,70.22
